sensor_id;sensor_type;location;lat;lon;timestamp;temperature;humidity
7562;DHT22;3822;48.784;9.174;2023-05-07T00:01:03;19.50;73.70
7562;DHT22;3822;48.784;9.174;2023-05-07T00:03:34;19.50;73.80
7562;DHT22;3822;48.784;9.174;2023-05-07T00:06:01;19.50;73.90
7562;DHT22;3822;48.784;9.174;2023-05-07T00:08:27;19.50;74.00
7562;DHT22;3822;48.784;9.174;2023-05-07T00:10:53;19.50;74.10
7562;DHT22;3822;48.784;9.174;2023-05-07T00:13:23;19.50;74.20
7562;DHT22;3822;48.784;9.174;2023-05-07T00:15:49;19.40;74.20
7562;DHT22;3822;48.784;9.174;2023-05-07T00:18:15;19.40;74.40
7562;DHT22;3822;48.784;9.174;2023-05-07T00:20:48;19.40;74.50
7562;DHT22;3822;48.784;9.174;2023-05-07T00:23:15;19.30;74.50
7562;DHT22;3822;48.784;9.174;2023-05-07T00:25:42;19.30;74.80
7562;DHT22;3822;48.784;9.174;2023-05-07T00:28:08;19.30;75.00
7562;DHT22;3822;48.784;9.174;2023-05-07T00:30:37;19.30;75.20
7562;DHT22;3822;48.784;9.174;2023-05-07T00:33:06;19.20;75.30
7562;DHT22;3822;48.784;9.174;2023-05-07T00:35:32;19.20;75.50
7562;DHT22;3822;48.784;9.174;2023-05-07T00:37:58;19.20;75.50
7562;DHT22;3822;48.784;9.174;2023-05-07T00:40:24;19.10;75.60
7562;DHT22;3822;48.784;9.174;2023-05-07T00:42:51;19.20;76.20
7562;DHT22;3822;48.784;9.174;2023-05-07T00:45:22;19.10;76.00
7562;DHT22;3822;48.784;9.174;2023-05-07T00:47:50;19.10;76.20
7562;DHT22;3822;48.784;9.174;2023-05-07T00:50:16;19.10;76.40
7562;DHT22;3822;48.784;9.174;2023-05-07T00:52:50;19.00;76.60
7562;DHT22;3822;48.784;9.174;2023-05-07T00:55:16;19.00;76.80
7562;DHT22;3822;48.784;9.174;2023-05-07T01:00:25;18.90;77.10
7562;DHT22;3822;48.784;9.174;2023-05-07T01:02:51;18.90;77.30
7562;DHT22;3822;48.784;9.174;2023-05-07T01:05:20;18.90;77.50
7562;DHT22;3822;48.784;9.174;2023-05-07T01:07:49;18.90;77.80
7562;DHT22;3822;48.784;9.174;2023-05-07T01:10:15;18.80;77.80
7562;DHT22;3822;48.784;9.174;2023-05-07T01:12:43;18.80;77.90
7562;DHT22;3822;48.784;9.174;2023-05-07T01:15:12;18.80;78.10
7562;DHT22;3822;48.784;9.174;2023-05-07T01:17:41;18.70;78.30
7562;DHT22;3822;48.784;9.174;2023-05-07T01:20:10;18.70;78.40
7562;DHT22;3822;48.784;9.174;2023-05-07T01:22:37;18.70;78.50
7562;DHT22;3822;48.784;9.174;2023-05-07T01:25:04;18.70;78.60
7562;DHT22;3822;48.784;9.174;2023-05-07T01:27:31;18.70;78.80
7562;DHT22;3822;48.784;9.174;2023-05-07T01:29:59;18.70;78.90
7562;DHT22;3822;48.784;9.174;2023-05-07T01:32:30;18.60;79.00
7562;DHT22;3822;48.784;9.174;2023-05-07T01:35:05;18.60;79.20
7562;DHT22;3822;48.784;9.174;2023-05-07T01:37:32;18.60;79.30
7562;DHT22;3822;48.784;9.174;2023-05-07T01:40:01;18.60;79.50
7562;DHT22;3822;48.784;9.174;2023-05-07T01:42:29;18.60;79.60
7562;DHT22;3822;48.784;9.174;2023-05-07T01:44:55;18.60;79.70
7562;DHT22;3822;48.784;9.174;2023-05-07T01:47:22;16.70;78.00
7562;DHT22;3822;48.784;9.174;2023-05-07T01:49:48;18.50;79.90
7562;DHT22;3822;48.784;9.174;2023-05-07T01:52:15;18.50;80.00
7562;DHT22;3822;48.784;9.174;2023-05-07T01:54:42;18.50;80.10
7562;DHT22;3822;48.784;9.174;2023-05-07T01:57:08;18.50;80.30
7562;DHT22;3822;48.784;9.174;2023-05-07T01:59:35;18.50;80.40
7562;DHT22;3822;48.784;9.174;2023-05-07T02:02:01;18.40;80.50
7562;DHT22;3822;48.784;9.174;2023-05-07T02:04:27;18.40;80.60
7562;DHT22;3822;48.784;9.174;2023-05-07T02:06:54;18.40;80.70
7562;DHT22;3822;48.784;9.174;2023-05-07T02:09:24;18.40;80.90
7562;DHT22;3822;48.784;9.174;2023-05-07T02:11:50;18.40;81.20
7562;DHT22;3822;48.784;9.174;2023-05-07T02:14:17;18.40;81.30
7562;DHT22;3822;48.784;9.174;2023-05-07T02:16:43;18.30;81.30
7562;DHT22;3822;48.784;9.174;2023-05-07T02:19:13;18.20;81.40
7562;DHT22;3822;48.784;9.174;2023-05-07T02:21:39;18.30;81.70
7562;DHT22;3822;48.784;9.174;2023-05-07T02:24:05;18.30;81.80
7562;DHT22;3822;48.784;9.174;2023-05-07T02:26:32;18.30;82.00
7562;DHT22;3822;48.784;9.174;2023-05-07T02:29:00;18.20;82.30
7562;DHT22;3822;48.784;9.174;2023-05-07T02:31:26;18.20;82.10
7562;DHT22;3822;48.784;9.174;2023-05-07T02:33:55;18.20;82.20
7562;DHT22;3822;48.784;9.174;2023-05-07T02:36:21;18.20;82.40
7562;DHT22;3822;48.784;9.174;2023-05-07T02:38:47;18.20;82.50
7562;DHT22;3822;48.784;9.174;2023-05-07T02:41:14;18.20;82.60
7562;DHT22;3822;48.784;9.174;2023-05-07T02:43:40;18.20;82.80
7562;DHT22;3822;48.784;9.174;2023-05-07T02:46:07;18.20;82.80
7562;DHT22;3822;48.784;9.174;2023-05-07T02:48:34;18.10;82.80
7562;DHT22;3822;48.784;9.174;2023-05-07T02:51:00;18.10;82.80
7562;DHT22;3822;48.784;9.174;2023-05-07T02:53:30;18.10;82.90
7562;DHT22;3822;48.784;9.174;2023-05-07T02:55:59;18.10;83.00
7562;DHT22;3822;48.784;9.174;2023-05-07T02:58:26;18.10;83.10
7562;DHT22;3822;48.784;9.174;2023-05-07T03:00:53;18.00;83.70
7562;DHT22;3822;48.784;9.174;2023-05-07T03:03:20;18.00;83.10
7562;DHT22;3822;48.784;9.174;2023-05-07T03:05:47;18.00;83.30
7562;DHT22;3822;48.784;9.174;2023-05-07T03:08:13;17.90;83.30
7562;DHT22;3822;48.784;9.174;2023-05-07T03:10:39;18.00;83.50
7562;DHT22;3822;48.784;9.174;2023-05-07T03:13:06;17.90;83.50
7562;DHT22;3822;48.784;9.174;2023-05-07T03:15:32;17.90;83.60
7562;DHT22;3822;48.784;9.174;2023-05-07T03:17:58;17.90;83.70
7562;DHT22;3822;48.784;9.174;2023-05-07T03:20:25;17.90;83.80
7562;DHT22;3822;48.784;9.174;2023-05-07T03:22:51;17.80;84.10
7562;DHT22;3822;48.784;9.174;2023-05-07T03:25:17;17.80;84.00
7562;DHT22;3822;48.784;9.174;2023-05-07T03:27:44;17.80;84.10
7562;DHT22;3822;48.784;9.174;2023-05-07T03:30:10;17.80;84.20
7562;DHT22;3822;48.784;9.174;2023-05-07T03:32:37;17.80;84.40
7562;DHT22;3822;48.784;9.174;2023-05-07T03:35:04;17.80;84.50
7562;DHT22;3822;48.784;9.174;2023-05-07T03:37:30;17.70;84.60
7562;DHT22;3822;48.784;9.174;2023-05-07T03:39:57;17.70;84.70
7562;DHT22;3822;48.784;9.174;2023-05-07T03:42:25;17.70;84.70
7562;DHT22;3822;48.784;9.174;2023-05-07T03:44:52;17.70;84.90
7562;DHT22;3822;48.784;9.174;2023-05-07T03:47:20;17.60;84.80
7562;DHT22;3822;48.784;9.174;2023-05-07T03:49:46;17.60;85.40
7562;DHT22;3822;48.784;9.174;2023-05-07T03:52:14;17.50;85.30
7562;DHT22;3822;48.784;9.174;2023-05-07T03:54:41;17.50;85.40
7562;DHT22;3822;48.784;9.174;2023-05-07T03:57:10;17.50;85.50
7562;DHT22;3822;48.784;9.174;2023-05-07T03:59:38;17.50;85.80
7562;DHT22;3822;48.784;9.174;2023-05-07T04:02:04;17.50;85.90
7562;DHT22;3822;48.784;9.174;2023-05-07T04:04:33;17.40;86.40
7562;DHT22;3822;48.784;9.174;2023-05-07T04:07:00;17.50;86.30
7562;DHT22;3822;48.784;9.174;2023-05-07T04:09:26;17.40;86.80
7562;DHT22;3822;48.784;9.174;2023-05-07T04:11:52;17.40;86.50
7562;DHT22;3822;48.784;9.174;2023-05-07T04:14:21;17.40;86.80
7562;DHT22;3822;48.784;9.174;2023-05-07T04:16:49;17.40;86.90
7562;DHT22;3822;48.784;9.174;2023-05-07T04:19:16;17.40;87.10
7562;DHT22;3822;48.784;9.174;2023-05-07T04:21:45;17.40;87.10
7562;DHT22;3822;48.784;9.174;2023-05-07T04:24:11;17.30;87.40
7562;DHT22;3822;48.784;9.174;2023-05-07T04:26:37;17.30;87.50
7562;DHT22;3822;48.784;9.174;2023-05-07T04:29:04;17.30;88.20
7562;DHT22;3822;48.784;9.174;2023-05-07T04:31:33;17.20;87.60
7562;DHT22;3822;48.784;9.174;2023-05-07T04:33:59;17.30;88.00
7562;DHT22;3822;48.784;9.174;2023-05-07T04:36:26;18.00;88.90
7562;DHT22;3822;48.784;9.174;2023-05-07T04:39:02;17.20;88.20
7562;DHT22;3822;48.784;9.174;2023-05-07T04:41:28;17.20;88.30
7562;DHT22;3822;48.784;9.174;2023-05-07T04:43:57;17.20;88.40
7562;DHT22;3822;48.784;9.174;2023-05-07T04:46:24;17.20;88.60
7562;DHT22;3822;48.784;9.174;2023-05-07T04:48:50;17.20;88.70
7562;DHT22;3822;48.784;9.174;2023-05-07T04:51:17;17.20;89.40
7562;DHT22;3822;48.784;9.174;2023-05-07T04:53:45;17.20;88.90
7562;DHT22;3822;48.784;9.174;2023-05-07T04:56:11;17.20;89.00
7562;DHT22;3822;48.784;9.174;2023-05-07T04:58:40;17.50;89.90
7562;DHT22;3822;48.784;9.174;2023-05-07T05:01:09;17.20;89.10
7562;DHT22;3822;48.784;9.174;2023-05-07T05:03:35;17.20;89.30
7562;DHT22;3822;48.784;9.174;2023-05-07T05:06:02;17.20;89.20
7562;DHT22;3822;48.784;9.174;2023-05-07T05:08:29;17.20;89.20
7562;DHT22;3822;48.784;9.174;2023-05-07T05:11:01;17.20;89.30
7562;DHT22;3822;48.784;9.174;2023-05-07T05:13:28;17.20;89.30
7562;DHT22;3822;48.784;9.174;2023-05-07T05:15:57;17.20;89.30
7562;DHT22;3822;48.784;9.174;2023-05-07T05:18:23;17.20;89.50
7562;DHT22;3822;48.784;9.174;2023-05-07T05:20:50;17.20;89.50
7562;DHT22;3822;48.784;9.174;2023-05-07T05:23:17;17.20;89.60
7562;DHT22;3822;48.784;9.174;2023-05-07T05:25:46;17.20;89.70
7562;DHT22;3822;48.784;9.174;2023-05-07T05:28:12;17.20;89.70
7562;DHT22;3822;48.784;9.174;2023-05-07T05:30:39;17.20;89.70
7562;DHT22;3822;48.784;9.174;2023-05-07T05:33:08;17.20;89.70
7562;DHT22;3822;48.784;9.174;2023-05-07T05:35:35;17.30;89.70
7562;DHT22;3822;48.784;9.174;2023-05-07T05:38:01;17.30;90.10
7562;DHT22;3822;48.784;9.174;2023-05-07T05:40:28;17.30;89.60
7562;DHT22;3822;48.784;9.174;2023-05-07T05:42:57;17.30;89.40
7562;DHT22;3822;48.784;9.174;2023-05-07T05:45:26;17.30;89.40
7562;DHT22;3822;48.784;9.174;2023-05-07T05:48:02;17.40;89.30
7562;DHT22;3822;48.784;9.174;2023-05-07T05:50:28;17.40;89.20
7562;DHT22;3822;48.784;9.174;2023-05-07T05:52:56;17.40;89.10
7562;DHT22;3822;48.784;9.174;2023-05-07T05:55:23;17.40;89.10
7562;DHT22;3822;48.784;9.174;2023-05-07T05:57:50;17.40;88.90
7562;DHT22;3822;48.784;9.174;2023-05-07T06:00:19;17.40;88.90
7562;DHT22;3822;48.784;9.174;2023-05-07T06:02:48;17.50;89.00
7562;DHT22;3822;48.784;9.174;2023-05-07T06:05:14;17.40;89.10
7562;DHT22;3822;48.784;9.174;2023-05-07T06:07:41;17.50;89.30
7562;DHT22;3822;48.784;9.174;2023-05-07T06:10:07;17.50;89.40
7562;DHT22;3822;48.784;9.174;2023-05-07T06:12:34;17.50;89.60
7562;DHT22;3822;48.784;9.174;2023-05-07T06:15:00;17.60;89.60
7562;DHT22;3822;48.784;9.174;2023-05-07T06:17:27;17.60;89.70
7562;DHT22;3822;48.784;9.174;2023-05-07T06:19:56;17.60;89.70
7562;DHT22;3822;48.784;9.174;2023-05-07T06:22:22;17.70;89.90
7562;DHT22;3822;48.784;9.174;2023-05-07T06:24:51;17.00;89.10
7562;DHT22;3822;48.784;9.174;2023-05-07T06:27:17;17.80;89.90
7562;DHT22;3822;48.784;9.174;2023-05-07T06:29:44;17.80;90.00
7562;DHT22;3822;48.784;9.174;2023-05-07T06:32:11;17.70;90.00
7562;DHT22;3822;48.784;9.174;2023-05-07T06:34:39;17.70;90.00
7562;DHT22;3822;48.784;9.174;2023-05-07T06:37:05;17.70;90.10
7562;DHT22;3822;48.784;9.174;2023-05-07T06:39:32;17.80;90.20
7562;DHT22;3822;48.784;9.174;2023-05-07T06:42:00;17.90;90.20
7562;DHT22;3822;48.784;9.174;2023-05-07T06:44:26;17.90;90.30
7562;DHT22;3822;48.784;9.174;2023-05-07T06:46:52;18.00;90.30
7562;DHT22;3822;48.784;9.174;2023-05-07T06:49:19;18.10;90.30
7562;DHT22;3822;48.784;9.174;2023-05-07T06:51:47;18.10;90.30
7562;DHT22;3822;48.784;9.174;2023-05-07T06:54:14;18.10;90.30
7562;DHT22;3822;48.784;9.174;2023-05-07T06:56:40;18.20;90.40
7562;DHT22;3822;48.784;9.174;2023-05-07T06:59:06;18.20;90.40
7562;DHT22;3822;48.784;9.174;2023-05-07T07:01:33;18.30;90.40
7562;DHT22;3822;48.784;9.174;2023-05-07T07:03:59;18.30;90.30
7562;DHT22;3822;48.784;9.174;2023-05-07T07:06:26;18.40;90.20
7562;DHT22;3822;48.784;9.174;2023-05-07T07:08:57;18.40;90.10
7562;DHT22;3822;48.784;9.174;2023-05-07T07:11:24;18.50;90.10
7562;DHT22;3822;48.784;9.174;2023-05-07T07:13:51;18.60;90.00
7562;DHT22;3822;48.784;9.174;2023-05-07T07:16:20;18.70;89.50
7562;DHT22;3822;48.784;9.174;2023-05-07T07:18:47;18.70;89.30
7562;DHT22;3822;48.784;9.174;2023-05-07T07:21:13;18.80;89.20
7562;DHT22;3822;48.784;9.174;2023-05-07T07:23:40;18.90;89.10
7562;DHT22;3822;48.784;9.174;2023-05-07T07:26:06;19.00;89.10
7562;DHT22;3822;48.784;9.174;2023-05-07T07:28:33;19.10;88.70
7562;DHT22;3822;48.784;9.174;2023-05-07T07:30:59;19.10;88.30
7562;DHT22;3822;48.784;9.174;2023-05-07T07:33:26;19.20;88.30
7562;DHT22;3822;48.784;9.174;2023-05-07T07:35:52;19.30;88.10
7562;DHT22;3822;48.784;9.174;2023-05-07T07:38:19;19.40;88.10
7562;DHT22;3822;48.784;9.174;2023-05-07T07:40:47;19.50;88.00
7562;DHT22;3822;48.784;9.174;2023-05-07T07:43:13;19.60;87.90
7562;DHT22;3822;48.784;9.174;2023-05-07T07:45:39;19.80;87.90
7562;DHT22;3822;48.784;9.174;2023-05-07T07:48:06;19.90;87.80
7562;DHT22;3822;48.784;9.174;2023-05-07T07:50:32;20.00;87.80
7562;DHT22;3822;48.784;9.174;2023-05-07T07:52:58;20.20;87.40
7562;DHT22;3822;48.784;9.174;2023-05-07T07:55:24;20.30;87.20
7562;DHT22;3822;48.784;9.174;2023-05-07T07:57:52;20.40;86.70
7562;DHT22;3822;48.784;9.174;2023-05-07T08:00:18;20.50;86.60
7562;DHT22;3822;48.784;9.174;2023-05-07T08:02:45;20.60;86.40
7562;DHT22;3822;48.784;9.174;2023-05-07T08:05:11;20.70;85.90
7562;DHT22;3822;48.784;9.174;2023-05-07T08:07:37;20.80;85.70
7562;DHT22;3822;48.784;9.174;2023-05-07T08:10:03;20.90;85.60
7562;DHT22;3822;48.784;9.174;2023-05-07T08:12:32;20.90;85.50
7562;DHT22;3822;48.784;9.174;2023-05-07T08:14:58;21.00;85.20
7562;DHT22;3822;48.784;9.174;2023-05-07T08:17:25;21.00;84.90
7562;DHT22;3822;48.784;9.174;2023-05-07T08:19:53;21.10;84.70
7562;DHT22;3822;48.784;9.174;2023-05-07T08:22:20;21.20;84.60
7562;DHT22;3822;48.784;9.174;2023-05-07T08:24:47;21.20;84.40
7562;DHT22;3822;48.784;9.174;2023-05-07T08:27:14;21.30;84.30
7562;DHT22;3822;48.784;9.174;2023-05-07T08:29:40;21.40;84.10
7562;DHT22;3822;48.784;9.174;2023-05-07T08:32:06;21.50;83.40
7562;DHT22;3822;48.784;9.174;2023-05-07T08:34:33;21.50;82.90
7562;DHT22;3822;48.784;9.174;2023-05-07T08:36:59;21.60;82.60
7562;DHT22;3822;48.784;9.174;2023-05-07T08:39:26;21.70;82.70
7562;DHT22;3822;48.784;9.174;2023-05-07T08:41:54;21.70;83.00
7562;DHT22;3822;48.784;9.174;2023-05-07T08:44:23;21.90;83.20
7562;DHT22;3822;48.784;9.174;2023-05-07T08:46:53;21.90;82.90
7562;DHT22;3822;48.784;9.174;2023-05-07T08:49:24;22.10;82.70
7562;DHT22;3822;48.784;9.174;2023-05-07T08:51:50;22.20;81.20
7562;DHT22;3822;48.784;9.174;2023-05-07T08:54:17;22.20;80.50
7562;DHT22;3822;48.784;9.174;2023-05-07T08:56:46;22.30;80.50
7562;DHT22;3822;48.784;9.174;2023-05-07T08:59:13;22.30;80.20
7562;DHT22;3822;48.784;9.174;2023-05-07T09:01:41;22.40;79.80
7562;DHT22;3822;48.784;9.174;2023-05-07T09:04:08;22.40;79.50
7562;DHT22;3822;48.784;9.174;2023-05-07T09:06:35;22.50;79.90
7562;DHT22;3822;48.784;9.174;2023-05-07T09:09:02;22.50;79.60
7562;DHT22;3822;48.784;9.174;2023-05-07T09:11:31;22.60;79.20
7562;DHT22;3822;48.784;9.174;2023-05-07T09:13:57;22.70;79.30
7562;DHT22;3822;48.784;9.174;2023-05-07T09:16:29;22.80;78.70
7562;DHT22;3822;48.784;9.174;2023-05-07T09:18:57;22.90;78.80
7562;DHT22;3822;48.784;9.174;2023-05-07T09:21:24;22.90;78.40
7562;DHT22;3822;48.784;9.174;2023-05-07T09:23:54;23.00;78.00
7562;DHT22;3822;48.784;9.174;2023-05-07T09:26:21;23.10;77.30
7562;DHT22;3822;48.784;9.174;2023-05-07T09:28:50;23.10;77.20
7562;DHT22;3822;48.784;9.174;2023-05-07T09:31:17;23.20;77.40
7562;DHT22;3822;48.784;9.174;2023-05-07T09:33:43;23.20;77.00
7562;DHT22;3822;48.784;9.174;2023-05-07T09:36:12;23.30;77.20
7562;DHT22;3822;48.784;9.174;2023-05-07T09:38:40;23.40;76.80
7562;DHT22;3822;48.784;9.174;2023-05-07T09:41:10;23.40;76.50
7562;DHT22;3822;48.784;9.174;2023-05-07T09:43:38;23.50;76.50
7562;DHT22;3822;48.784;9.174;2023-05-07T09:46:12;23.60;76.20
7562;DHT22;3822;48.784;9.174;2023-05-07T09:48:58;23.60;76.00
7562;DHT22;3822;48.784;9.174;2023-05-07T09:51:33;23.60;75.40
7562;DHT22;3822;48.784;9.174;2023-05-07T09:54:04;23.60;74.90
7562;DHT22;3822;48.784;9.174;2023-05-07T09:56:30;23.70;75.50
7562;DHT22;3822;48.784;9.174;2023-05-07T09:58:57;23.70;73.80
7562;DHT22;3822;48.784;9.174;2023-05-07T10:01:30;23.80;73.70
7562;DHT22;3822;48.784;9.174;2023-05-07T10:04:02;23.90;73.60
7562;DHT22;3822;48.784;9.174;2023-05-07T10:06:31;23.90;73.60
7562;DHT22;3822;48.784;9.174;2023-05-07T10:08:57;23.90;73.10
7562;DHT22;3822;48.784;9.174;2023-05-07T10:11:28;24.00;73.50
7562;DHT22;3822;48.784;9.174;2023-05-07T10:14:02;24.00;73.10
7562;DHT22;3822;48.784;9.174;2023-05-07T10:16:32;24.00;73.50
7562;DHT22;3822;48.784;9.174;2023-05-07T10:19:06;24.20;72.90
7562;DHT22;3822;48.784;9.174;2023-05-07T10:21:35;24.20;72.20
7562;DHT22;3822;48.784;9.174;2023-05-07T10:24:04;24.20;72.20
7562;DHT22;3822;48.784;9.174;2023-05-07T10:26:52;24.20;72.20
7562;DHT22;3822;48.784;9.174;2023-05-07T10:29:23;24.30;72.20
7562;DHT22;3822;48.784;9.174;2023-05-07T10:35:26;24.30;70.90
7562;DHT22;3822;48.784;9.174;2023-05-07T10:37:55;24.30;70.80
7562;DHT22;3822;48.784;9.174;2023-05-07T10:40:24;24.50;70.50
7562;DHT22;3822;48.784;9.174;2023-05-07T10:43:03;24.60;70.40
7562;DHT22;3822;48.784;9.174;2023-05-07T10:45:36;24.70;69.90
7562;DHT22;3822;48.784;9.174;2023-05-07T10:50:41;24.80;69.60
7562;DHT22;3822;48.784;9.174;2023-05-07T10:58:24;25.10;69.00
7562;DHT22;3822;48.784;9.174;2023-05-07T11:01:00;25.20;68.70
7562;DHT22;3822;48.784;9.174;2023-05-07T11:03:28;25.20;68.40
7562;DHT22;3822;48.784;9.174;2023-05-07T11:06:11;25.30;66.60
7562;DHT22;3822;48.784;9.174;2023-05-07T11:11:58;25.30;66.10
7562;DHT22;3822;48.784;9.174;2023-05-07T11:14:42;25.40;66.50
7562;DHT22;3822;48.784;9.174;2023-05-07T11:17:07;25.50;66.00
7562;DHT22;3822;48.784;9.174;2023-05-07T11:19:52;25.50;65.10
7562;DHT22;3822;48.784;9.174;2023-05-07T11:25:02;25.70;64.70
7562;DHT22;3822;48.784;9.174;2023-05-07T11:27:29;25.70;64.10
7562;DHT22;3822;48.784;9.174;2023-05-07T11:29:59;25.80;64.30
7562;DHT22;3822;48.784;9.174;2023-05-07T11:32:27;25.90;64.30
7562;DHT22;3822;48.784;9.174;2023-05-07T11:35:00;25.90;64.10
7562;DHT22;3822;48.784;9.174;2023-05-07T11:37:27;25.90;63.40
7562;DHT22;3822;48.784;9.174;2023-05-07T11:40:05;25.90;63.30
7562;DHT22;3822;48.784;9.174;2023-05-07T11:42:39;25.90;63.10
7562;DHT22;3822;48.784;9.174;2023-05-07T11:45:22;25.90;63.20
7562;DHT22;3822;48.784;9.174;2023-05-07T11:47:52;25.80;63.30
7562;DHT22;3822;48.784;9.174;2023-05-07T11:50:21;25.80;63.90
7562;DHT22;3822;48.784;9.174;2023-05-07T11:52:51;25.70;64.00
7562;DHT22;3822;48.784;9.174;2023-05-07T11:55:21;25.70;64.50
7562;DHT22;3822;48.784;9.174;2023-05-07T11:57:51;25.60;64.70
7562;DHT22;3822;48.784;9.174;2023-05-07T12:00:24;25.50;65.00
7562;DHT22;3822;48.784;9.174;2023-05-07T12:02:50;25.50;65.40
7562;DHT22;3822;48.784;9.174;2023-05-07T12:05:16;25.50;65.70
7562;DHT22;3822;48.784;9.174;2023-05-07T12:07:46;25.40;66.20
7562;DHT22;3822;48.784;9.174;2023-05-07T12:10:14;25.40;67.50
7562;DHT22;3822;48.784;9.174;2023-05-07T12:12:41;25.30;69.00
7562;DHT22;3822;48.784;9.174;2023-05-07T12:15:13;25.20;70.30
7562;DHT22;3822;48.784;9.174;2023-05-07T12:17:50;25.10;71.80
7562;DHT22;3822;48.784;9.174;2023-05-07T12:20:21;25.00;73.10
7562;DHT22;3822;48.784;9.174;2023-05-07T12:22:47;24.70;74.10
7562;DHT22;3822;48.784;9.174;2023-05-07T12:25:23;24.50;75.30
7562;DHT22;3822;48.784;9.174;2023-05-07T12:27:52;24.40;76.90
7562;DHT22;3822;48.784;9.174;2023-05-07T12:30:22;24.20;78.20
7562;DHT22;3822;48.784;9.174;2023-05-07T12:32:52;24.00;78.30
7562;DHT22;3822;48.784;9.174;2023-05-07T12:38:12;23.60;79.40
7562;DHT22;3822;48.784;9.174;2023-05-07T12:40:41;23.50;79.60
7562;DHT22;3822;48.784;9.174;2023-05-07T12:43:26;23.40;80.30
7562;DHT22;3822;48.784;9.174;2023-05-07T12:46:00;23.30;80.50
7562;DHT22;3822;48.784;9.174;2023-05-07T12:48:27;23.10;79.90
7562;DHT22;3822;48.784;9.174;2023-05-07T12:50:57;22.90;79.60
7562;DHT22;3822;48.784;9.174;2023-05-07T12:53:26;22.80;80.80
7562;DHT22;3822;48.784;9.174;2023-05-07T12:55:56;22.60;81.50
7562;DHT22;3822;48.784;9.174;2023-05-07T12:58:33;22.50;80.90
7562;DHT22;3822;48.784;9.174;2023-05-07T13:01:07;22.40;79.80
7562;DHT22;3822;48.784;9.174;2023-05-07T13:03:41;22.30;79.60
7562;DHT22;3822;48.784;9.174;2023-05-07T13:06:08;22.20;79.10
7562;DHT22;3822;48.784;9.174;2023-05-07T13:08:41;22.10;78.90
7562;DHT22;3822;48.784;9.174;2023-05-07T13:11:10;22.00;79.50
7562;DHT22;3822;48.784;9.174;2023-05-07T13:13:42;21.90;80.40
7562;DHT22;3822;48.784;9.174;2023-05-07T13:16:09;21.90;81.50
7562;DHT22;3822;48.784;9.174;2023-05-07T13:18:37;21.80;82.30
7562;DHT22;3822;48.784;9.174;2023-05-07T13:21:09;21.70;82.70
7562;DHT22;3822;48.784;9.174;2023-05-07T13:23:42;21.60;82.40
7562;DHT22;3822;48.784;9.174;2023-05-07T13:26:08;21.50;82.40
7562;DHT22;3822;48.784;9.174;2023-05-07T13:28:36;21.40;81.30
7562;DHT22;3822;48.784;9.174;2023-05-07T13:31:08;21.20;80.00
7562;DHT22;3822;48.784;9.174;2023-05-07T13:33:35;21.10;80.10
7562;DHT22;3822;48.784;9.174;2023-05-07T13:36:07;21.00;80.30
7562;DHT22;3822;48.784;9.174;2023-05-07T13:38:35;21.00;80.80
7562;DHT22;3822;48.784;9.174;2023-05-07T13:41:08;20.90;81.30
7562;DHT22;3822;48.784;9.174;2023-05-07T13:43:34;20.90;82.10
7562;DHT22;3822;48.784;9.174;2023-05-07T13:46:00;20.70;83.80
7562;DHT22;3822;48.784;9.174;2023-05-07T13:48:29;20.60;83.70
7562;DHT22;3822;48.784;9.174;2023-05-07T13:50:56;20.50;83.60
7562;DHT22;3822;48.784;9.174;2023-05-07T13:53:25;20.50;84.10
7562;DHT22;3822;48.784;9.174;2023-05-07T13:55:58;20.50;84.60
7562;DHT22;3822;48.784;9.174;2023-05-07T13:58:24;20.40;84.70
7562;DHT22;3822;48.784;9.174;2023-05-07T14:00:54;20.50;85.40
7562;DHT22;3822;48.784;9.174;2023-05-07T14:03:20;20.50;86.00
7562;DHT22;3822;48.784;9.174;2023-05-07T14:05:46;20.50;86.30
7562;DHT22;3822;48.784;9.174;2023-05-07T14:08:13;20.40;86.60
7562;DHT22;3822;48.784;9.174;2023-05-07T14:10:47;20.30;86.80
7562;DHT22;3822;48.784;9.174;2023-05-07T14:13:13;20.20;86.20
7562;DHT22;3822;48.784;9.174;2023-05-07T14:15:41;20.00;86.70
7562;DHT22;3822;48.784;9.174;2023-05-07T14:18:12;19.90;87.50
7562;DHT22;3822;48.784;9.174;2023-05-07T14:20:41;19.80;88.50
7562;DHT22;3822;48.784;9.174;2023-05-07T14:23:09;19.70;89.40
7562;DHT22;3822;48.784;9.174;2023-05-07T14:25:35;19.70;90.20
7562;DHT22;3822;48.784;9.174;2023-05-07T14:28:05;19.60;90.70
7562;DHT22;3822;48.784;9.174;2023-05-07T14:30:32;19.50;90.90
7562;DHT22;3822;48.784;9.174;2023-05-07T14:32:58;19.40;91.20
7562;DHT22;3822;48.784;9.174;2023-05-07T14:35:33;19.40;91.70
7562;DHT22;3822;48.784;9.174;2023-05-07T14:38:00;19.20;91.90
7562;DHT22;3822;48.784;9.174;2023-05-07T14:40:28;19.10;92.20
7562;DHT22;3822;48.784;9.174;2023-05-07T14:42:55;19.10;92.50
7562;DHT22;3822;48.784;9.174;2023-05-07T14:45:23;19.00;92.60
7562;DHT22;3822;48.784;9.174;2023-05-07T14:47:49;18.90;93.00
7562;DHT22;3822;48.784;9.174;2023-05-07T14:50:15;18.80;93.00
7562;DHT22;3822;48.784;9.174;2023-05-07T14:52:42;18.80;93.20
7562;DHT22;3822;48.784;9.174;2023-05-07T14:55:14;18.70;93.20
7562;DHT22;3822;48.784;9.174;2023-05-07T14:57:40;18.80;93.40
7562;DHT22;3822;48.784;9.174;2023-05-07T15:00:11;18.40;93.20
7562;DHT22;3822;48.784;9.174;2023-05-07T15:02:38;18.80;93.40
7562;DHT22;3822;48.784;9.174;2023-05-07T15:05:05;18.80;93.40
7562;DHT22;3822;48.784;9.174;2023-05-07T15:07:35;18.80;93.40
7562;DHT22;3822;48.784;9.174;2023-05-07T15:10:01;18.80;93.40
7562;DHT22;3822;48.784;9.174;2023-05-07T15:12:28;17.90;93.00
7562;DHT22;3822;48.784;9.174;2023-05-07T15:15:03;18.90;93.40
7562;DHT22;3822;48.784;9.174;2023-05-07T15:17:30;18.90;93.60
7562;DHT22;3822;48.784;9.174;2023-05-07T15:20:03;18.90;93.50
7562;DHT22;3822;48.784;9.174;2023-05-07T15:22:30;19.00;93.60
7562;DHT22;3822;48.784;9.174;2023-05-07T15:25:00;19.00;93.70
7562;DHT22;3822;48.784;9.174;2023-05-07T15:27:26;19.10;93.90
7562;DHT22;3822;48.784;9.174;2023-05-07T15:29:53;19.10;93.90
7562;DHT22;3822;48.784;9.174;2023-05-07T15:32:25;19.10;94.00
7562;DHT22;3822;48.784;9.174;2023-05-07T15:34:52;19.20;94.10
7562;DHT22;3822;48.784;9.174;2023-05-07T15:37:18;19.20;94.40
7562;DHT22;3822;48.784;9.174;2023-05-07T15:39:50;19.20;94.30
7562;DHT22;3822;48.784;9.174;2023-05-07T15:42:16;19.20;94.30
7562;DHT22;3822;48.784;9.174;2023-05-07T15:44:46;19.30;94.40
7562;DHT22;3822;48.784;9.174;2023-05-07T15:47:14;19.30;94.50
7562;DHT22;3822;48.784;9.174;2023-05-07T15:49:45;19.30;94.60
7562;DHT22;3822;48.784;9.174;2023-05-07T15:52:14;19.30;94.70
7562;DHT22;3822;48.784;9.174;2023-05-07T15:54:41;19.40;94.70
7562;DHT22;3822;48.784;9.174;2023-05-07T15:57:11;19.30;94.90
7562;DHT22;3822;48.784;9.174;2023-05-07T15:59:40;19.30;94.90
7562;DHT22;3822;48.784;9.174;2023-05-07T16:02:10;19.40;95.00
7562;DHT22;3822;48.784;9.174;2023-05-07T16:04:36;19.40;95.00
7562;DHT22;3822;48.784;9.174;2023-05-07T16:07:02;19.40;95.00
7562;DHT22;3822;48.784;9.174;2023-05-07T16:09:38;19.40;95.00
7562;DHT22;3822;48.784;9.174;2023-05-07T16:12:04;20.30;95.40
7562;DHT22;3822;48.784;9.174;2023-05-07T16:14:34;19.40;95.00
7562;DHT22;3822;48.784;9.174;2023-05-07T16:17:00;19.50;95.10
7562;DHT22;3822;48.784;9.174;2023-05-07T16:19:27;19.50;95.10
7562;DHT22;3822;48.784;9.174;2023-05-07T16:21:57;19.50;95.00
7562;DHT22;3822;48.784;9.174;2023-05-07T16:24:26;19.50;95.10
7562;DHT22;3822;48.784;9.174;2023-05-07T16:26:52;19.60;95.10
7562;DHT22;3822;48.784;9.174;2023-05-07T16:29:21;19.60;95.10
7562;DHT22;3822;48.784;9.174;2023-05-07T16:31:48;19.60;95.10